Time;durP1;ratioP1;P1;durP2;ratioP2;P2;SDS_P1;SDS_P2;PMS_P1;PMS_P2;Temp;Humidity;BMP_temperature;BMP_pressure;BME280_temperature;BME280_humidity;BME280_pressure;Samples;Min_cycle;Max_cycle;Signal;HPM_P1;HPM_P2
2023/05/20 00:00:00;;;;;;;4.27;3.13;;;;;;;;;;5035344;28;20185;-73
2023/05/20 00:03:04;;;;;;;3.30;3.00;;;;;;;;;;5011920;28;20216;-73
2023/05/20 00:06:08;;;;;;;4.83;3.10;;;;;;;;;;5035339;28;20177;-73
2023/05/20 00:09:12;;;;;;;4.47;3.40;;;;;;;;;;5035859;28;20180;-73
2023/05/20 00:12:16;;;;;;;4.77;3.40;;;;;;;;;;5022946;28;20560;-73
2023/05/20 00:15:20;;;;;;;4.10;3.20;;;;;;;;;;5035059;28;20207;-73
2023/05/20 00:18:24;;;;;;;3.77;3.27;;;;;;;;;;5011674;28;20185;-73
2023/05/20 00:21:28;;;;;;;3.37;3.07;;;;;;;;;;5023094;28;20628;-73
2023/05/20 00:24:32;;;;;;;4.20;3.07;;;;;;;;;;5022781;28;20627;-73
2023/05/20 00:27:36;;;;;;;5.87;3.47;;;;;;;;;;5011173;28;20219;-74
2023/05/20 00:30:40;;;;;;;3.83;3.30;;;;;;;;;;5011416;28;20201;-74
2023/05/20 00:33:45;;;;;;;4.83;3.47;;;;;;;;;;5022331;28;20556;-73
2023/05/20 00:36:49;;;;;;;3.17;2.87;;;;;;;;;;5022732;28;20213;-74
2023/05/20 00:39:53;;;;;;;4.00;3.60;;;;;;;;;;5022514;28;20196;-73
2023/05/20 00:42:56;;;;;;;4.40;3.40;;;;;;;;;;5022456;28;20212;-74
2023/05/20 00:46:01;;;;;;;3.60;3.07;;;;;;;;;;5010975;28;20173;-73
2023/05/20 00:49:05;;;;;;;3.67;3.37;;;;;;;;;;5034299;28;20180;-73
2023/05/20 00:52:10;;;;;;;3.70;3.40;;;;;;;;;;5034108;28;20212;-74
2023/05/20 00:55:14;;;;;;;3.57;3.27;;;;;;;;;;5021951;28;20623;-74
2023/05/20 00:58:18;;;;;;;3.70;3.40;;;;;;;;;;5022412;28;20624;-73
2023/05/20 01:01:22;;;;;;;4.93;3.40;;;;;;;;;;5010573;28;20188;-74
2023/05/20 01:04:26;;;;;;;4.47;3.70;;;;;;;;;;5034541;28;20180;-74
2023/05/20 01:07:31;;;;;;;3.93;3.53;;;;;;;;;;5010828;28;20181;-73
2023/05/20 01:10:40;;;;;;;3.70;3.40;;;;;;;;;;5021993;28;20181;-74
2023/05/20 01:13:48;;;;;;;3.23;2.93;;;;;;;;;;5021635;28;20212;-73
2023/05/20 01:16:54;;;;;;;5.17;3.33;;;;;;;;;;5033765;28;20674;-73
2023/05/20 01:20:00;;;;;;;3.63;3.33;;;;;;;;;;5010200;28;20200;-73
2023/05/20 01:23:04;;;;;;;5.73;4.00;;;;;;;;;;5021703;28;20220;-74
2023/05/20 01:26:12;;;;;;;7.97;3.80;;;;;;;;;;5033615;28;20185;-73
2023/05/20 01:29:17;;;;;;;4.83;3.77;;;;;;;;;;4999047;28;20201;-73
2023/05/20 01:32:25;;;;;;;6.50;3.87;;;;;;;;;;5021566;28;20212;-74
2023/05/20 01:35:29;;;;;;;4.00;3.60;;;;;;;;;;5033401;28;20197;-73
2023/05/20 01:38:35;;;;;;;5.20;4.20;;;;;;;;;;5021814;28;20181;-73
2023/05/20 01:41:40;;;;;;;4.53;4.10;;;;;;;;;;5033555;28;20181;-74
2023/05/20 01:44:45;;;;;;;5.30;4.63;;;;;;;;;;5021122;28;20201;-74
2023/05/20 01:47:48;;;;;;;6.97;4.10;;;;;;;;;;5033848;28;20177;-74
2023/05/20 01:50:54;;;;;;;5.30;4.40;;;;;;;;;;5021300;28;20200;-73
2023/05/20 01:53:58;;;;;;;6.70;4.60;;;;;;;;;;5021073;28;20544;-74
2023/05/20 01:57:02;;;;;;;6.37;4.67;;;;;;;;;;5021770;28;20671;-74
2023/05/20 02:00:07;;;;;;;5.17;4.50;;;;;;;;;;4998716;28;20196;-73
2023/05/20 02:03:17;;;;;;;5.37;4.57;;;;;;;;;;5033525;28;20556;-73
2023/05/20 02:06:21;;;;;;;5.37;4.87;;;;;;;;;;5020467;28;20628;-74
2023/05/20 02:09:27;;;;;;;5.33;4.83;;;;;;;;;;5021428;28;20184;-73
2023/05/20 02:12:31;;;;;;;5.83;5.00;;;;;;;;;;5021193;28;20556;-73
2023/05/20 02:15:35;;;;;;;6.53;4.67;;;;;;;;;;5021057;28;20537;-73
2023/05/20 02:18:39;;;;;;;5.20;4.57;;;;;;;;;;5021597;28;20173;-74
2023/05/20 02:21:45;;;;;;;6.17;4.40;;;;;;;;;;5033225;28;20216;-74
2023/05/20 02:24:49;;;;;;;5.97;4.93;;;;;;;;;;5020948;28;20185;-73
2023/05/20 02:27:53;;;;;;;6.60;4.80;;;;;;;;;;5033115;28;20176;-73
2023/05/20 02:30:57;;;;;;;5.93;5.07;;;;;;;;;;5020879;28;20196;-73
2023/05/20 02:34:03;;;;;;;7.77;5.20;;;;;;;;;;5032825;28;20173;-74
2023/05/20 02:37:06;;;;;;;6.57;5.03;;;;;;;;;;5020874;28;20205;-73
2023/05/20 02:40:10;;;;;;;6.17;5.27;;;;;;;;;;5009459;28;20539;-74
2023/05/20 02:43:16;;;;;;;6.73;5.43;;;;;;;;;;5009548;28;20212;-73
2023/05/20 02:46:20;;;;;;;6.57;5.47;;;;;;;;;;5033144;28;20177;-73
2023/05/20 02:49:24;;;;;;;4.97;4.47;;;;;;;;;;5020774;28;20197;-73
2023/05/20 02:52:30;;;;;;;8.43;5.20;;;;;;;;;;5020384;28;20224;-73
2023/05/20 02:55:35;;;;;;;6.57;5.57;;;;;;;;;;5020838;28;20181;-73
2023/05/20 02:58:39;;;;;;;8.03;5.30;;;;;;;;;;5033119;28;20185;-73
2023/05/20 03:01:43;;;;;;;6.37;5.37;;;;;;;;;;5020931;28;20217;-73
2023/05/20 03:04:47;;;;;;;7.20;5.60;;;;;;;;;;5020402;28;20201;-73
2023/05/20 03:07:51;;;;;;;6.00;5.40;;;;;;;;;;5032759;28;20172;-73
2023/05/20 03:10:55;;;;;;;8.90;5.40;;;;;;;;;;5033036;28;20181;-73
2023/05/20 03:14:00;;;;;;;5.87;5.10;;;;;;;;;;5020250;28;20196;-73
2023/05/20 03:17:04;;;;;;;6.30;4.73;;;;;;;;;;5032867;28;20224;-73
2023/05/20 03:20:11;;;;;;;9.27;5.70;;;;;;;;;;5024257;28;20185;-73
2023/05/20 03:23:15;;;;;;;7.20;5.40;;;;;;;;;;5023635;28;20217;-73
2023/05/20 03:26:20;;;;;;;6.80;5.13;;;;;;;;;;5023716;28;20181;-73
2023/05/20 03:29:24;;;;;;;6.30;5.40;;;;;;;;;;5023799;28;20177;-73
2023/05/20 03:32:29;;;;;;;7.30;4.90;;;;;;;;;;5023436;28;20220;-73
2023/05/20 03:35:33;;;;;;;12.43;5.63;;;;;;;;;;5023523;28;20222;-73
2023/05/20 03:38:37;;;;;;;8.33;5.23;;;;;;;;;;5023789;28;20184;-73
2023/05/20 03:41:41;;;;;;;7.10;4.90;;;;;;;;;;5012548;28;20228;-73
2023/05/20 03:44:47;;;;;;;7.70;5.50;;;;;;;;;;5023309;28;20181;-73
2023/05/20 03:47:53;;;;;;;6.90;4.70;;;;;;;;;;5023292;28;20660;-73
2023/05/20 03:50:57;;;;;;;7.70;5.17;;;;;;;;;;5012365;28;20180;-73
2023/05/20 03:54:01;;;;;;;5.83;4.80;;;;;;;;;;5023150;28;20200;-73
2023/05/20 03:57:05;;;;;;;5.83;4.60;;;;;;;;;;5023057;28;20208;-73
2023/05/20 04:00:11;;;;;;;7.43;4.67;;;;;;;;;;5023044;28;20185;-73
2023/05/20 04:03:21;;;;;;;5.20;4.70;;;;;;;;;;5035059;28;20213;-73
2023/05/20 04:06:26;;;;;;;7.40;4.63;;;;;;;;;;5012179;28;20636;-73
2023/05/20 04:09:30;;;;;;;5.57;4.90;;;;;;;;;;5022778;28;20200;-73
2023/05/20 04:12:36;;;;;;;5.33;4.80;;;;;;;;;;5022923;28;20683;-73
2023/05/20 04:15:40;;;;;;;5.63;4.57;;;;;;;;;;5022968;28;20197;-74
2023/05/20 04:18:44;;;;;;;4.87;4.37;;;;;;;;;;5022850;28;20200;-73
2023/05/20 04:21:49;;;;;;;5.50;4.90;;;;;;;;;;5022603;28;20560;-73
2023/05/20 04:24:53;;;;;;;7.50;5.10;;;;;;;;;;5011869;28;20525;-74
2023/05/20 04:27:59;;;;;;;6.13;5.10;;;;;;;;;;5034967;28;20185;-73
2023/05/20 04:31:03;;;;;;;6.13;4.50;;;;;;;;;;5022238;28;20189;-73
2023/05/20 04:34:09;;;;;;;6.73;4.83;;;;;;;;;;5022918;28;20632;-73
2023/05/20 04:37:14;;;;;;;6.00;5.10;;;;;;;;;;5011049;28;20213;-73
2023/05/20 04:40:20;;;;;;;6.00;5.40;;;;;;;;;;5022611;28;20173;-73
2023/05/20 04:43:28;;;;;;;6.50;4.83;;;;;;;;;;5022408;28;20560;-73
2023/05/20 04:46:33;;;;;;;10.77;5.50;;;;;;;;;;5022419;28;20569;-73
2023/05/20 04:49:37;;;;;;;6.60;5.90;;;;;;;;;;5022627;28;20186;-74
2023/05/20 04:52:42;;;;;;;7.70;6.10;;;;;;;;;;5050277;22;20220;-73
2023/05/20 04:55:47;;;;;;;7.07;5.43;;;;;;;;;;5013930;28;20205;-70
2023/05/20 04:58:52;;;;;;;7.13;6.10;;;;;;;;;;5003003;28;20205;-70
2023/05/20 05:01:56;;;;;;;8.13;5.80;;;;;;;;;;5002446;28;20684;-69
2023/05/20 05:05:01;;;;;;;8.20;5.47;;;;;;;;;;5002398;28;20197;-70
2023/05/20 05:08:05;;;;;;;10.20;6.27;;;;;;;;;;4991221;28;20178;-70
2023/05/20 05:11:12;;;;;;;8.40;6.07;;;;;;;;;;4991208;28;20184;-70
2023/05/20 05:14:17;;;;;;;7.73;5.03;;;;;;;;;;5002064;28;20177;-70
2023/05/20 05:17:21;;;;;;;7.63;5.83;;;;;;;;;;5002180;28;20197;-70
2023/05/20 05:20:25;;;;;;;7.90;5.53;;;;;;;;;;5002141;28;20178;-69
2023/05/20 05:23:29;;;;;;;6.67;5.40;;;;;;;;;;5001839;28;20221;-69
2023/05/20 05:26:33;;;;;;;9.20;5.80;;;;;;;;;;4991092;28;20178;-70
2023/05/20 05:29:39;;;;;;;6.87;5.70;;;;;;;;;;5002060;28;20181;-70
2023/05/20 05:32:43;;;;;;;6.80;6.00;;;;;;;;;;5013692;28;20569;-70
2023/05/20 05:35:48;;;;;;;6.23;5.33;;;;;;;;;;5002090;28;20185;-70
2023/05/20 05:38:52;;;;;;;6.17;5.47;;;;;;;;;;5001798;28;20276;-70
2023/05/20 05:41:57;;;;;;;6.53;5.60;;;;;;;;;;5000874;28;20589;-70
2023/05/20 05:45:02;;;;;;;5.70;5.10;;;;;;;;;;5002073;28;20201;-69
2023/05/20 05:48:06;;;;;;;8.80;5.80;;;;;;;;;;5001936;28;20177;-69
2023/05/20 05:51:11;;;;;;;7.93;5.90;;;;;;;;;;4990412;28;20636;-70
2023/05/20 05:54:15;;;;;;;6.63;5.80;;;;;;;;;;5001263;28;20545;-70
2023/05/20 05:57:19;;;;;;;7.43;5.80;;;;;;;;;;5001579;28;20549;-70
2023/05/20 06:00:23;;;;;;;7.70;5.57;;;;;;;;;;5001530;28;20641;-69
2023/05/20 06:03:28;;;;;;;6.00;5.40;;;;;;;;;;5001580;28;20216;-69
2023/05/20 06:06:33;;;;;;;10.50;5.67;;;;;;;;;;5001833;28;20182;-69
2023/05/20 06:09:38;;;;;;;6.87;5.73;;;;;;;;;;5013841;28;20184;-70
2023/05/20 06:12:41;;;;;;;6.20;5.50;;;;;;;;;;5001550;28;20217;-70
2023/05/20 06:15:48;;;;;;;7.87;5.30;;;;;;;;;;5001193;28;20196;-69
2023/05/20 06:18:55;;;;;;;9.63;5.90;;;;;;;;;;5001561;28;20201;-70
2023/05/20 06:22:00;;;;;;;6.83;5.37;;;;;;;;;;5001207;28;20225;-69
2023/05/20 06:25:05;;;;;;;8.47;5.97;;;;;;;;;;5013468;28;20528;-70
2023/05/20 06:28:11;;;;;;;8.37;5.97;;;;;;;;;;4990514;28;20201;-70
2023/05/20 06:31:16;;;;;;;9.80;6.23;;;;;;;;;;4989974;28;20181;-70
2023/05/20 06:34:20;;;;;;;6.60;5.70;;;;;;;;;;4990272;28;20197;-70
2023/05/20 06:37:24;;;;;;;9.43;5.27;;;;;;;;;;4990021;28;20624;-69
2023/05/20 06:40:28;;;;;;;9.57;5.60;;;;;;;;;;5001162;28;20178;-70
2023/05/20 06:43:33;;;;;;;5.90;5.30;;;;;;;;;;5012952;28;20217;-70
2023/05/20 06:47:00;;;;;;;6.77;5.50;;;;;;;;;;5000995;28;20532;-69
2023/05/20 06:50:04;;;;;;;11.80;5.10;;;;;;;;;;5013547;28;20178;-70
2023/05/20 06:53:09;;;;;;;9.07;5.70;;;;;;;;;;4990571;28;20591;-70
2023/05/20 06:56:14;;;;;;;6.20;4.73;;;;;;;;;;5005142;28;20517;-70
2023/05/20 06:59:18;;;;;;;6.17;5.17;;;;;;;;;;5004515;28;20201;-70
2023/05/20 07:02:24;;;;;;;6.50;5.27;;;;;;;;;;5004351;28;20213;-70
2023/05/20 07:05:28;;;;;;;7.03;5.17;;;;;;;;;;5004608;28;20197;-70
2023/05/20 07:08:32;;;;;;;8.00;5.10;;;;;;;;;;4993506;28;20177;-70
2023/05/20 07:11:36;;;;;;;5.83;4.80;;;;;;;;;;5015605;28;20178;-70
2023/05/20 07:14:41;;;;;;;6.10;4.83;;;;;;;;;;5004511;28;20201;-70
2023/05/20 07:17:45;;;;;;;5.60;4.90;;;;;;;;;;5016425;28;20684;-70
2023/05/20 07:20:49;;;;;;;7.17;4.97;;;;;;;;;;5004524;28;20197;-70
2023/05/20 07:24:06;;;;;;;6.00;4.90;;;;;;;;;;5004298;28;20624;-70
2023/05/20 07:27:10;;;;;;;5.33;4.60;;;;;;;;;;5016358;28;20640;-70
2023/05/20 07:30:14;;;;;;;4.73;4.23;;;;;;;;;;5003963;28;20173;-70
2023/05/20 07:33:24;;;;;;;4.80;3.83;;;;;;;;;;5003890;28;20221;-70
2023/05/20 07:36:28;;;;;;;12.07;5.03;;;;;;;;;;5004148;28;20182;-70
2023/05/20 07:39:34;;;;;;;11.87;4.37;;;;;;;;;;5003959;28;20202;-70
2023/05/20 07:42:38;;;;;;;5.53;4.13;;;;;;;;;;5003818;28;20220;-70
2023/05/20 07:45:43;;;;;;;5.00;3.80;;;;;;;;;;5003577;28;20197;-70
2023/05/20 07:48:47;;;;;;;8.20;4.37;;;;;;;;;;5003515;28;20189;-70
2023/05/20 07:51:52;;;;;;;5.17;3.93;;;;;;;;;;5015701;28;20221;-70
2023/05/20 07:54:56;;;;;;;6.47;4.57;;;;;;;;;;5015335;28;20217;-70
2023/05/20 07:58:01;;;;;;;5.40;4.17;;;;;;;;;;5004169;28;20205;-70
2023/05/20 08:01:08;;;;;;;4.30;3.70;;;;;;;;;;5003740;28;20186;-70
2023/05/20 08:04:12;;;;;;;5.07;3.93;;;;;;;;;;5003019;28;20173;-70
2023/05/20 08:07:16;;;;;;;5.07;4.20;;;;;;;;;;5015339;28;20177;-70
2023/05/20 08:10:29;;;;;;;6.87;4.20;;;;;;;;;;5003153;28;20177;-70
2023/05/20 08:13:34;;;;;;;7.30;4.20;;;;;;;;;;5002972;28;20219;-70
2023/05/20 08:16:41;;;;;;;12.63;4.87;;;;;;;;;;5003097;28;20206;-70
2023/05/20 08:19:45;;;;;;;7.20;4.00;;;;;;;;;;5003233;28;20572;-70
2023/05/20 08:22:51;;;;;;;7.60;3.67;;;;;;;;;;5015488;28;20556;-70
2023/05/20 08:25:56;;;;;;;4.43;3.97;;;;;;;;;;5003067;28;20189;-70
2023/05/20 08:29:02;;;;;;;10.83;4.40;;;;;;;;;;5002709;28;20190;-69
2023/05/20 08:32:06;;;;;;;4.20;3.67;;;;;;;;;;5014738;28;20228;-70
2023/05/20 08:35:12;;;;;;;4.77;4.00;;;;;;;;;;5003016;28;20227;-70
2023/05/20 08:38:16;;;;;;;5.20;3.73;;;;;;;;;;5003121;28;20211;-70
2023/05/20 08:41:21;;;;;;;6.03;3.67;;;;;;;;;;5002536;28;20192;-70
2023/05/20 08:44:26;;;;;;;3.73;3.43;;;;;;;;;;5003091;28;20188;-70
2023/05/20 08:47:31;;;;;;;8.20;3.35;;;;;;;;;;5014876;28;20181;-70
2023/05/20 08:50:35;;;;;;;7.50;4.03;;;;;;;;;;5014458;28;20174;-69
2023/05/20 08:53:39;;;;;;;39.65;6.78;;;;;;;;;;5013595;28;20691;-69
2023/05/20 08:56:44;;;;;;;6.03;3.60;;;;;;;;;;5002553;28;20187;-70
2023/05/20 08:59:48;;;;;;;3.57;3.23;;;;;;;;;;5014528;28;20200;-70
2023/05/20 09:02:52;;;;;;;4.63;3.43;;;;;;;;;;5014388;28;20215;-70
2023/05/20 09:06:05;;;;;;;4.67;3.77;;;;;;;;;;5014739;28;20188;-70
2023/05/20 09:09:13;;;;;;;5.23;3.50;;;;;;;;;;5014422;28;20192;-71
2023/05/20 09:12:18;;;;;;;5.03;4.07;;;;;;;;;;5002797;28;20223;-69
2023/05/20 09:15:23;;;;;;;4.20;3.80;;;;;;;;;;5014523;28;20184;-69
2023/05/20 09:18:28;;;;;;;4.10;3.43;;;;;;;;;;5014821;28;20204;-70
2023/05/20 09:21:34;;;;;;;7.37;4.07;;;;;;;;;;5014015;28;20190;-70
2023/05/20 09:24:40;;;;;;;25.87;4.80;;;;;;;;;;5013422;28;20631;-70
2023/05/20 09:27:43;;;;;;;5.43;3.67;;;;;;;;;;5014169;28;20197;-70
2023/05/20 09:30:49;;;;;;;5.27;3.97;;;;;;;;;;5001723;28;20538;-70
2023/05/20 09:33:54;;;;;;;8.83;3.47;;;;;;;;;;4990769;28;20635;-70
2023/05/20 09:36:59;;;;;;;6.20;3.28;;;;;;;;;;5013848;28;20189;-70
2023/05/20 09:40:04;;;;;;;4.53;3.57;;;;;;;;;;5014167;28;20204;-70
2023/05/20 09:43:10;;;;;;;5.67;3.53;;;;;;;;;;5014111;28;20219;-69
2023/05/20 09:46:15;;;;;;;5.33;3.33;;;;;;;;;;5014174;28;20182;-70
2023/05/20 09:49:21;;;;;;;3.72;3.33;;;;;;;;;;5014129;28;20175;-70
2023/05/20 09:52:25;;;;;;;5.55;3.80;;;;;;;;;;5013723;28;20220;-70
2023/05/20 09:55:30;;;;;;;3.65;3.33;;;;;;;;;;5013472;28;20180;-70
2023/05/20 09:58:35;;;;;;;6.38;3.60;;;;;;;;;;5001620;28;20203;-70
2023/05/20 10:01:39;;;;;;;3.85;3.10;;;;;;;;;;5013857;28;20187;-70
2023/05/20 10:04:47;;;;;;;6.68;3.65;;;;;;;;;;5013613;28;20185;-70
2023/05/20 10:08:10;;;;;;;20.13;4.28;;;;;;;;;;5001577;28;20193;-70
2023/05/20 10:11:26;;;;;;;7.18;3.55;;;;;;;;;;5013300;28;20188;-70
2023/05/20 10:15:03;;;;;;;6.57;3.00;;;;;;;;;;5013693;28;20181;-70
2023/05/20 10:18:19;;;;;;;3.65;2.67;;;;;;;;;;5013534;28;20189;-71
2023/05/20 10:21:24;;;;;;;3.88;2.65;;;;;;;;;;5013367;28;20186;-70
2023/05/20 10:24:41;;;;;;;4.22;3.20;;;;;;;;;;5013378;28;20512;-70
2023/05/20 10:27:46;;;;;;;8.70;3.10;;;;;;;;;;5013664;28;20187;-70
2023/05/20 10:30:51;;;;;;;4.65;3.08;;;;;;;;;;5017334;28;20179;-70
2023/05/20 10:33:57;;;;;;;7.05;3.72;;;;;;;;;;5017216;28;20180;-70
2023/05/20 10:37:01;;;;;;;5.22;3.08;;;;;;;;;;5017413;28;20184;-70
2023/05/20 10:40:10;;;;;;;3.75;3.03;;;;;;;;;;5017555;28;20203;-70
2023/05/20 10:43:24;;;;;;;3.72;3.08;;;;;;;;;;5016266;28;20209;-70
2023/05/20 10:46:29;;;;;;;5.72;2.95;;;;;;;;;;5005023;28;20189;-71
2023/05/20 10:49:34;;;;;;;3.97;3.15;;;;;;;;;;5017332;28;20178;-71
2023/05/20 10:52:40;;;;;;;3.72;3.40;;;;;;;;;;5016840;28;20215;-70
2023/05/20 10:55:50;;;;;;;5.95;3.75;;;;;;;;;;5043131;23;20323;-73
2023/05/20 10:58:55;;;;;;;11.38;3.55;;;;;;;;;;5036387;28;20562;-73
2023/05/20 11:02:00;;;;;;;3.80;3.10;;;;;;;;;;5035907;28;20716;-73
2023/05/20 11:05:05;;;;;;;8.30;3.90;;;;;;;;;;5036556;28;20172;-74
2023/05/20 11:08:10;;;;;;;7.85;3.13;;;;;;;;;;5024164;28;20645;-74
2023/05/20 11:11:14;;;;;;;4.95;2.67;;;;;;;;;;5024503;28;20195;-73
2023/05/20 11:14:20;;;;;;;4.78;2.50;;;;;;;;;;5013219;28;20175;-73
2023/05/20 11:17:25;;;;;;;3.97;2.67;;;;;;;;;;5036439;28;20180;-73
2023/05/20 11:20:34;;;;;;;5.55;3.47;;;;;;;;;;5036133;28;20676;-73
2023/05/20 11:23:37;;;;;;;10.13;3.97;;;;;;;;;;5037004;28;20212;-73
2023/05/20 11:26:41;;;;;;;3.60;3.28;;;;;;;;;;5001655;28;20186;-74
2023/05/20 11:29:49;;;;;;;7.25;3.55;;;;;;;;;;5035806;28;20182;-73
2023/05/20 11:33:00;;;;;;;4.15;3.63;;;;;;;;;;5023564;28;20696;-72
2023/05/20 11:36:04;;;;;;;10.88;3.70;;;;;;;;;;5035736;28;20520;-73
2023/05/20 11:39:13;;;;;;;7.05;3.22;;;;;;;;;;5035648;28;20203;-74
2023/05/20 11:42:17;;;;;;;6.68;3.40;;;;;;;;;;5035735;28;20220;-74
2023/05/20 11:45:22;;;;;;;4.85;3.20;;;;;;;;;;5023252;28;20188;-73
2023/05/20 11:48:26;;;;;;;5.97;3.70;;;;;;;;;;5023757;28;20187;-73
2023/05/20 11:51:30;;;;;;;5.53;3.90;;;;;;;;;;5035464;28;20202;-74
2023/05/20 11:54:35;;;;;;;3.95;3.40;;;;;;;;;;5035948;28;20619;-74
2023/05/20 11:57:40;;;;;;;3.95;3.40;;;;;;;;;;5023600;28;20190;-73
2023/05/20 12:00:44;;;;;;;5.00;3.30;;;;;;;;;;5035059;28;20212;-73
2023/05/20 12:03:48;;;;;;;4.72;3.90;;;;;;;;;;5035370;28;20202;-74
2023/05/20 12:06:52;;;;;;;5.13;3.53;;;;;;;;;;5034958;28;20200;-74
2023/05/20 12:09:56;;;;;;;5.25;3.45;;;;;;;;;;5035493;28;20512;-74
2023/05/20 12:13:02;;;;;;;5.72;3.55;;;;;;;;;;5035027;28;20221;-74
2023/05/20 12:16:06;;;;;;;4.18;3.42;;;;;;;;;;5034930;28;20177;-74
2023/05/20 12:19:10;;;;;;;5.70;3.55;;;;;;;;;;5034739;28;20184;-74
2023/05/20 12:22:14;;;;;;;8.27;4.30;;;;;;;;;;5022638;28;20218;-74
2023/05/20 12:25:20;;;;;;;4.60;3.92;;;;;;;;;;5034709;28;20185;-74
2023/05/20 12:28:24;;;;;;;5.05;4.38;;;;;;;;;;5022736;28;20182;-74
2023/05/20 12:31:28;;;;;;;8.17;4.33;;;;;;;;;;5022458;28;20175;-74
2023/05/20 12:34:32;;;;;;;5.07;4.37;;;;;;;;;;5022325;28;20176;-74
2023/05/20 12:37:40;;;;;;;6.90;4.10;;;;;;;;;;5022499;28;20173;-73
2023/05/20 12:40:44;;;;;;;7.20;4.10;;;;;;;;;;5022658;28;20210;-74
2023/05/20 12:43:49;;;;;;;6.13;4.70;;;;;;;;;;5022255;28;20180;-74
2023/05/20 12:46:54;;;;;;;7.10;4.40;;;;;;;;;;5022443;28;20180;-74
2023/05/20 12:49:58;;;;;;;5.10;4.50;;;;;;;;;;5022432;28;20518;-74
2023/05/20 12:53:03;;;;;;;5.40;4.53;;;;;;;;;;5034522;28;20557;-74
2023/05/20 12:56:07;;;;;;;7.13;4.97;;;;;;;;;;5010924;28;20200;-74
2023/05/20 12:59:12;;;;;;;7.20;5.10;;;;;;;;;;5034568;28;20184;-74
2023/05/20 13:02:16;;;;;;;8.15;4.43;;;;;;;;;;5034322;28;20585;-73
2023/05/20 13:05:21;;;;;;;4.90;4.40;;;;;;;;;;5022133;28;20542;-73
2023/05/20 13:08:26;;;;;;;6.88;4.53;;;;;;;;;;5034504;28;20179;-74
2023/05/20 13:11:30;;;;;;;12.10;5.43;;;;;;;;;;5034362;28;20621;-74
2023/05/20 13:14:35;;;;;;;6.57;4.95;;;;;;;;;;5034302;28;20282;-74
2023/05/20 13:17:40;;;;;;;7.25;5.20;;;;;;;;;;5021629;28;20180;-74
2023/05/20 13:20:44;;;;;;;11.00;5.18;;;;;;;;;;5021520;28;20220;-73
2023/05/20 13:23:48;;;;;;;6.45;4.60;;;;;;;;;;5033812;28;20202;-73
2023/05/20 13:26:53;;;;;;;6.00;4.10;;;;;;;;;;5033491;28;20181;-73
2023/05/20 13:29:56;;;;;;;5.07;4.53;;;;;;;;;;5033742;28;20193;-74
2023/05/20 13:33:01;;;;;;;8.27;4.88;;;;;;;;;;5021228;28;20222;-74
2023/05/20 13:36:05;;;;;;;6.00;4.90;;;;;;;;;;5021515;28;20184;-74
2023/05/20 13:39:09;;;;;;;6.40;4.90;;;;;;;;;;5033679;28;20613;-74
2023/05/20 13:42:13;;;;;;;6.35;4.65;;;;;;;;;;5021301;28;20214;-74
2023/05/20 13:45:17;;;;;;;5.22;4.65;;;;;;;;;;5021604;28;20521;-74
2023/05/20 13:48:21;;;;;;;5.10;4.60;;;;;;;;;;5034111;28;20179;-74
2023/05/20 13:51:25;;;;;;;8.77;4.97;;;;;;;;;;5033430;28;20200;-74
2023/05/20 13:54:30;;;;;;;11.13;5.30;;;;;;;;;;5010024;28;20199;-73
2023/05/20 13:57:34;;;;;;;9.15;5.07;;;;;;;;;;5033493;28;20169;-74
2023/05/20 14:00:38;;;;;;;12.98;5.30;;;;;;;;;;5033265;28;20561;-74
2023/05/20 14:03:42;;;;;;;13.27;5.38;;;;;;;;;;5032401;28;20231;-74
2023/05/20 14:06:46;;;;;;;7.80;5.38;;;;;;;;;;5033118;28;20181;-74
2023/05/20 14:09:50;;;;;;;7.57;5.07;;;;;;;;;;5021463;28;20505;-74
2023/05/20 14:12:57;;;;;;;6.63;5.05;;;;;;;;;;5033308;28;20685;-73
2023/05/20 14:16:01;;;;;;;6.80;5.00;;;;;;;;;;5020938;28;20202;-73
2023/05/20 14:19:05;;;;;;;7.05;5.20;;;;;;;;;;5020728;28;20198;-74
2023/05/20 14:22:10;;;;;;;5.53;4.72;;;;;;;;;;5020863;28;20215;-73
2023/05/20 14:25:15;;;;;;;7.15;4.95;;;;;;;;;;5033404;28;20192;-74
2023/05/20 14:28:19;;;;;;;6.97;4.82;;;;;;;;;;5033361;28;20629;-73
2023/05/20 14:31:23;;;;;;;5.68;5.15;;;;;;;;;;5032982;28;20180;-74
2023/05/20 14:34:27;;;;;;;16.13;5.80;;;;;;;;;;5021197;28;20191;-73
2023/05/20 14:37:31;;;;;;;8.18;5.40;;;;;;;;;;5020965;28;20675;-73
2023/05/20 14:40:35;;;;;;;8.00;5.30;;;;;;;;;;5020841;28;20227;-73
2023/05/20 14:43:39;;;;;;;6.27;5.67;;;;;;;;;;5032731;28;20222;-73
2023/05/20 14:46:43;;;;;;;6.40;5.03;;;;;;;;;;5020853;28;20184;-73
2023/05/20 14:49:48;;;;;;;8.47;5.43;;;;;;;;;;5020781;28;20637;-73
2023/05/20 14:52:52;;;;;;;9.80;5.43;;;;;;;;;;5020772;28;20692;-74
2023/05/20 14:55:57;;;;;;;13.33;6.03;;;;;;;;;;5032655;28;20207;-73
2023/05/20 14:59:01;;;;;;;5.47;4.90;;;;;;;;;;5032591;28;20185;-74
2023/05/20 15:02:05;;;;;;;7.97;5.37;;;;;;;;;;5032756;28;20217;-74
2023/05/20 15:05:10;;;;;;;7.03;5.30;;;;;;;;;;5033058;28;20181;-74
2023/05/20 15:08:15;;;;;;;7.63;5.73;;;;;;;;;;5009561;28;20624;-74
2023/05/20 15:11:19;;;;;;;8.90;5.97;;;;;;;;;;5032532;28;20196;-74
2023/05/20 15:14:23;;;;;;;8.40;5.80;;;;;;;;;;5021598;28;20197;-74
2023/05/20 15:17:27;;;;;;;6.87;5.27;;;;;;;;;;5023890;28;20196;-74
2023/05/20 15:20:31;;;;;;;6.17;5.57;;;;;;;;;;5036266;28;20667;-74
2023/05/20 15:23:35;;;;;;;10.13;6.13;;;;;;;;;;5036197;28;20216;-74
2023/05/20 15:26:39;;;;;;;10.33;5.53;;;;;;;;;;5036691;28;20221;-73
2023/05/20 15:29:44;;;;;;;9.47;5.37;;;;;;;;;;5024049;28;20182;-74
2023/05/20 15:32:48;;;;;;;6.43;5.73;;;;;;;;;;5036024;28;20212;-74
2023/05/20 15:35:52;;;;;;;8.13;5.80;;;;;;;;;;5024042;28;20631;-74
2023/05/20 15:38:56;;;;;;;8.80;5.70;;;;;;;;;;5023802;28;20188;-74
2023/05/20 15:42:01;;;;;;;9.70;5.67;;;;;;;;;;5035711;28;20229;-73
2023/05/20 15:45:06;;;;;;;6.83;5.80;;;;;;;;;;5035788;28;20205;-74
2023/05/20 15:48:10;;;;;;;13.10;5.70;;;;;;;;;;5035733;28;20655;-74
2023/05/20 15:51:14;;;;;;;13.70;6.07;;;;;;;;;;5023518;28;20185;-74
2023/05/20 15:54:18;;;;;;;6.83;5.53;;;;;;;;;;5035988;28;20178;-74
2023/05/20 15:57:23;;;;;;;7.60;5.90;;;;;;;;;;5035300;28;20657;-74
2023/05/20 16:00:27;;;;;;;26.90;7.33;;;;;;;;;;5035232;28;20214;-74
2023/05/20 16:03:31;;;;;;;11.53;6.90;;;;;;;;;;5035169;28;20250;-74
2023/05/20 16:06:36;;;;;;;11.03;5.90;;;;;;;;;;5035308;28;20191;-74
2023/05/20 16:09:40;;;;;;;7.40;5.43;;;;;;;;;;5035375;28;20187;-74
2023/05/20 16:12:44;;;;;;;7.67;5.37;;;;;;;;;;5023090;28;20209;-73
2023/05/20 16:15:49;;;;;;;7.47;5.70;;;;;;;;;;5035122;28;20181;-73
2023/05/20 16:18:53;;;;;;;9.27;6.10;;;;;;;;;;5035389;28;20184;-74
2023/05/20 16:21:57;;;;;;;8.73;5.90;;;;;;;;;;5022564;28;20701;-74
2023/05/20 16:25:02;;;;;;;252.07;20.73;;;;;;;;;;5034910;28;20188;-74
2023/05/20 16:28:08;;;;;;;6.90;5.23;;;;;;;;;;5034368;28;20626;-73
2023/05/20 16:31:12;;;;;;;10.10;5.77;;;;;;;;;;5034947;28;20193;-73
2023/05/20 16:34:16;;;;;;;7.77;5.73;;;;;;;;;;5034753;28;20203;-73
2023/05/20 16:37:20;;;;;;;8.90;5.70;;;;;;;;;;5034521;28;20187;-73
2023/05/20 16:40:24;;;;;;;6.87;5.57;;;;;;;;;;5022196;28;20178;-73
2023/05/20 16:43:29;;;;;;;11.93;5.93;;;;;;;;;;5022471;28;20683;-73
2023/05/20 16:46:33;;;;;;;13.43;6.80;;;;;;;;;;5034866;28;20189;-73
2023/05/20 16:49:37;;;;;;;12.37;5.90;;;;;;;;;;5022194;28;20775;-73
2023/05/20 16:52:40;;;;;;;9.07;6.37;;;;;;;;;;5034566;28;20709;-73
2023/05/20 16:55:45;;;;;;;15.63;6.53;;;;;;;;;;5037115;23;20228;-71
2023/05/20 16:58:50;;;;;;;9.93;6.43;;;;;;;;;;5033572;28;20173;-71
2023/05/20 17:01:54;;;;;;;9.20;6.43;;;;;;;;;;5034227;28;20228;-70
2023/05/20 17:04:58;;;;;;;10.80;6.00;;;;;;;;;;5034635;28;20181;-70
2023/05/20 17:08:03;;;;;;;46.60;8.37;;;;;;;;;;5034026;28;20190;-71
2023/05/20 17:11:07;;;;;;;8.27;6.47;;;;;;;;;;5021711;28;20189;-70
2023/05/20 17:14:11;;;;;;;7.67;6.53;;;;;;;;;;5033847;28;20205;-70
2023/05/20 17:17:15;;;;;;;20.93;7.07;;;;;;;;;;5021958;28;20176;-70
2023/05/20 17:20:19;;;;;;;7.13;6.43;;;;;;;;;;5033758;28;20203;-72
2023/05/20 17:23:23;;;;;;;10.17;6.30;;;;;;;;;;5033633;28;20686;-70
2023/05/20 17:26:28;;;;;;;10.13;6.70;;;;;;;;;;5033773;28;20184;-70
2023/05/20 17:29:32;;;;;;;9.87;6.63;;;;;;;;;;5033894;28;20187;-70
2023/05/20 17:32:40;;;;;;;9.07;6.00;;;;;;;;;;5033611;28;20687;-71
2023/05/20 17:35:44;;;;;;;13.27;6.40;;;;;;;;;;5033897;28;20177;-70
2023/05/20 17:38:48;;;;;;;7.20;5.90;;;;;;;;;;5034529;28;20197;-72
2023/05/20 17:41:52;;;;;;;8.70;6.80;;;;;;;;;;5033616;28;20228;-70
2023/05/20 17:44:57;;;;;;;23.30;6.93;;;;;;;;;;5033796;28;20180;-71
2023/05/20 17:48:05;;;;;;;9.20;6.57;;;;;;;;;;5010229;28;20192;-70
2023/05/20 17:51:09;;;;;;;7.73;6.40;;;;;;;;;;5033459;28;20173;-70
2023/05/20 17:54:13;;;;;;;8.70;6.23;;;;;;;;;;5033447;28;20181;-71
2023/05/20 17:57:19;;;;;;;8.90;6.87;;;;;;;;;;5021460;28;20173;-72
2023/05/20 18:00:23;;;;;;;9.13;6.30;;;;;;;;;;5033056;28;20185;-70
2023/05/20 18:03:27;;;;;;;8.50;6.53;;;;;;;;;;5033232;28;20212;-71
2023/05/20 18:06:33;;;;;;;7.47;6.57;;;;;;;;;;5033079;28;20185;-71
2023/05/20 18:09:38;;;;;;;7.37;6.40;;;;;;;;;;5021059;28;20181;-70
2023/05/20 18:12:42;;;;;;;7.53;6.17;;;;;;;;;;5033099;28;20208;-70
2023/05/20 18:15:46;;;;;;;8.07;6.77;;;;;;;;;;5020741;28;20177;-71
2023/05/20 18:18:51;;;;;;;36.17;8.17;;;;;;;;;;5033423;28;20176;-72
2023/05/20 18:21:55;;;;;;;9.63;6.93;;;;;;;;;;5020702;28;20244;-71
2023/05/20 18:25:00;;;;;;;9.47;7.53;;;;;;;;;;5020741;28;20177;-71